Current Conditions
Light Rain
Showers



Pressure
1029.92 (hPa) - 30.41 (inHG)
Visibility

10.0 (km) - 6.2 (miles)
Temperature
6  °C
Temperature
4  °C
Dewpoint
87  %
 Humidity
Wind Speed
26  km/h
14  kts
16  mph
7.2  m/s
Wind Direction
N
45°
E
90°
135°
S
180°
225°
W
270°
315°
 10°

Due North
Airport Data
LTBA
İstanbul Atatürk Airport
Metar :LTBA 021250Z 01014KT 9999 -SHRA SCT010 BKN021 06/04 Q1030 NOSIG RMK RWY23 01014KT
Tue 2nd March 15:50 pm
Raw Metar Info
Raw METAR is the most common format in the world for the transmission of observational weather data. It is highly standardized through the International Civil Aviation Organization (ICAO), which allows it to be understood throughout most of the world.
API Info
Data Provided by
https://www.checkwx.com/weather/LGSA

Aviation Weather providing METAR, TAF, AIRMET, SIGMET and OUTLOOK Weather Reports
© Info
CSS/SVG/PHP scripts were developed by weather34.com for use in the weather34 template © 2015-2021

Guide Info provided by Metar-Wikipedia